sensor_id;sensor_type;location;lat;lon;timestamp;P1;durP1;ratioP1;P2;durP2;ratioP2
67429;SDS011;54298;52.076;5.264;2023-02-12T00:00:31;22.6;;;16.3;;
67429;SDS011;54298;52.076;5.264;2023-02-12T00:03:46;22.9;;;16.0;;
67429;SDS011;54298;52.076;5.264;2023-02-12T00:05:23;26.7;;;18.91;;
67429;SDS011;54298;52.076;5.264;2023-02-12T00:07:00;26.5;;;19.2;;
67429;SDS011;54298;52.076;5.264;2023-02-12T00:08:37;26.0;;;17.5;;
67429;SDS011;54298;52.076;5.264;2023-02-12T00:11:51;27.4;;;20.3;;
67429;SDS011;54298;52.076;5.264;2023-02-12T00:13:29;24.6;;;19.11;;
67429;SDS011;54298;52.076;5.264;2023-02-12T00:15:06;26.9;;;20.41;;
67429;SDS011;54298;52.076;5.264;2023-02-12T00:18:20;25.9;;;19.41;;
67429;SDS011;54298;52.076;5.264;2023-02-12T00:19:56;25.3;;;19.41;;
67429;SDS011;54298;52.076;5.264;2023-02-12T00:21:34;29.7;;;19.2;;
67429;SDS011;54298;52.076;5.264;2023-02-12T00:24:47;24.6;;;18.61;;
67429;SDS011;54298;52.076;5.264;2023-02-12T00:26:24;24.1;;;19.0;;
67429;SDS011;54298;52.076;5.264;2023-02-12T00:28:01;22.2;;;17.91;;
67429;SDS011;54298;52.076;5.264;2023-02-12T00:29:38;26.4;;;17.7;;
67429;SDS011;54298;52.076;5.264;2023-02-12T00:32:54;26.4;;;17.7;;
67429;SDS011;54298;52.076;5.264;2023-02-12T00:34:30;29.3;;;20.6;;
67429;SDS011;54298;52.076;5.264;2023-02-12T00:36:08;26.4;;;19.11;;
67429;SDS011;54298;52.076;5.264;2023-02-12T00:39:25;25.7;;;17.5;;
67429;SDS011;54298;52.076;5.264;2023-02-12T00:41:02;27.7;;;20.6;;
67429;SDS011;54298;52.076;5.264;2023-02-12T00:42:39;29.0;;;19.41;;
67429;SDS011;54298;52.076;5.264;2023-02-12T00:44:15;29.1;;;19.0;;
67429;SDS011;54298;52.076;5.264;2023-02-12T00:47:28;27.8;;;19.91;;
67429;SDS011;54298;52.076;5.264;2023-02-12T00:49:04;24.3;;;18.61;;
67429;SDS011;54298;52.076;5.264;2023-02-12T00:50:43;24.1;;;18.7;;
67429;SDS011;54298;52.076;5.264;2023-02-12T00:53:56;27.1;;;19.91;;
67429;SDS011;54298;52.076;5.264;2023-02-12T00:55:32;29.8;;;21.5;;
67429;SDS011;54298;52.076;5.264;2023-02-12T00:57:09;26.8;;;19.7;;
67429;SDS011;54298;52.076;5.264;2023-02-12T01:00:21;29.7;;;22.2;;
67429;SDS011;54298;52.076;5.264;2023-02-12T01:01:59;26.3;;;19.3;;
67429;SDS011;54298;52.076;5.264;2023-02-12T01:03:35;26.4;;;19.2;;
67429;SDS011;54298;52.076;5.264;2023-02-12T01:05:12;28.5;;;20.2;;
67429;SDS011;54298;52.076;5.264;2023-02-12T01:08:25;25.4;;;18.7;;
67429;SDS011;54298;52.076;5.264;2023-02-12T01:10:02;24.3;;;17.7;;
67429;SDS011;54298;52.076;5.264;2023-02-12T01:11:40;27.1;;;18.61;;
67429;SDS011;54298;52.076;5.264;2023-02-12T01:14:52;29.7;;;20.7;;
67429;SDS011;54298;52.076;5.264;2023-02-12T01:16:30;23.1;;;17.0;;
67429;SDS011;54298;52.076;5.264;2023-02-12T01:18:08;25.5;;;18.11;;
67429;SDS011;54298;52.076;5.264;2023-02-12T01:19:45;25.7;;;20.11;;
67429;SDS011;54298;52.076;5.264;2023-02-12T01:23:00;27.1;;;20.0;;
67429;SDS011;54298;52.076;5.264;2023-02-12T01:24:37;25.0;;;19.11;;
67429;SDS011;54298;52.076;5.264;2023-02-12T01:26:15;28.1;;;19.41;;
67429;SDS011;54298;52.076;5.264;2023-02-12T01:29:31;28.6;;;19.5;;
67429;SDS011;54298;52.076;5.264;2023-02-12T01:31:08;27.4;;;18.41;;
67429;SDS011;54298;52.076;5.264;2023-02-12T01:32:45;27.1;;;19.8;;
67429;SDS011;54298;52.076;5.264;2023-02-12T01:34:21;27.6;;;21.1;;
67429;SDS011;54298;52.076;5.264;2023-02-12T01:37:33;26.6;;;19.0;;
67429;SDS011;54298;52.076;5.264;2023-02-12T01:39:12;28.7;;;20.3;;
67429;SDS011;54298;52.076;5.264;2023-02-12T01:40:50;27.5;;;20.7;;
67429;SDS011;54298;52.076;5.264;2023-02-12T01:44:04;26.8;;;19.5;;
67429;SDS011;54298;52.076;5.264;2023-02-12T01:45:45;23.9;;;16.7;;
67429;SDS011;54298;52.076;5.264;2023-02-12T01:47:26;24.0;;;17.5;;
67429;SDS011;54298;52.076;5.264;2023-02-12T01:49:04;24.5;;;17.5;;
67429;SDS011;54298;52.076;5.264;2023-02-12T01:52:24;24.9;;;18.7;;
67429;SDS011;54298;52.076;5.264;2023-02-12T01:54:05;24.2;;;17.41;;
67429;SDS011;54298;52.076;5.264;2023-02-12T01:55:47;29.3;;;21.7;;
67429;SDS011;54298;52.076;5.264;2023-02-12T01:57:25;26.1;;;19.2;;
67429;SDS011;54298;52.076;5.264;2023-02-12T02:00:41;28.9;;;20.11;;
67429;SDS011;54298;52.076;5.264;2023-02-12T02:02:18;27.8;;;18.8;;
67429;SDS011;54298;52.076;5.264;2023-02-12T02:03:56;28.7;;;19.8;;
67429;SDS011;54298;52.076;5.264;2023-02-12T02:07:21;27.4;;;19.41;;
67429;SDS011;54298;52.076;5.264;2023-02-12T02:08:58;27.3;;;18.7;;
67429;SDS011;54298;52.076;5.264;2023-02-12T02:10:36;25.4;;;17.91;;
67429;SDS011;54298;52.076;5.264;2023-02-12T02:14:34;24.1;;;18.7;;
67429;SDS011;54298;52.076;5.264;2023-02-12T02:18:00;22.2;;;17.0;;
67429;SDS011;54298;52.076;5.264;2023-02-12T02:19:49;26.1;;;19.5;;
67429;SDS011;54298;52.076;5.264;2023-02-12T02:23:33;26.9;;;18.2;;
67429;SDS011;54298;52.076;5.264;2023-02-12T02:27:09;27.4;;;20.8;;
67429;SDS011;54298;52.076;5.264;2023-02-12T02:28:57;24.9;;;19.41;;
67429;SDS011;54298;52.076;5.264;2023-02-12T02:32:32;24.9;;;19.41;;
67429;SDS011;54298;52.076;5.264;2023-02-12T02:34:18;31.5;;;20.5;;
67429;SDS011;54298;52.076;5.264;2023-02-12T02:36:09;25.1;;;17.61;;
67429;SDS011;54298;52.076;5.264;2023-02-12T02:37:59;27.5;;;18.91;;
67429;SDS011;54298;52.076;5.264;2023-02-12T02:39:48;26.9;;;19.11;;
67429;SDS011;54298;52.076;5.264;2023-02-12T02:41:29;27.0;;;20.41;;
67429;SDS011;54298;52.076;5.264;2023-02-12T02:44:56;32.0;;;20.6;;
67429;SDS011;54298;52.076;5.264;2023-02-12T02:46:38;26.4;;;20.2;;
67429;SDS011;54298;52.076;5.264;2023-02-12T02:48:22;25.2;;;20.41;;
67429;SDS011;54298;52.076;5.264;2023-02-12T02:50:04;26.1;;;19.91;;
67429;SDS011;54298;52.076;5.264;2023-02-12T02:51:46;27.5;;;19.61;;
67429;SDS011;54298;52.076;5.264;2023-02-12T02:55:14;27.5;;;19.8;;
67429;SDS011;54298;52.076;5.264;2023-02-12T02:56:56;28.0;;;21.4;;
67429;SDS011;54298;52.076;5.264;2023-02-12T02:58:41;26.3;;;21.0;;
67429;SDS011;54298;52.076;5.264;2023-02-12T03:00:24;25.9;;;19.0;;
67429;SDS011;54298;52.076;5.264;2023-02-12T03:03:52;27.3;;;19.7;;
67429;SDS011;54298;52.076;5.264;2023-02-12T03:05:36;25.9;;;19.41;;
67429;SDS011;54298;52.076;5.264;2023-02-12T03:07:19;29.9;;;22.3;;
67429;SDS011;54298;52.076;5.264;2023-02-12T03:09:01;24.8;;;18.91;;
67429;SDS011;54298;52.076;5.264;2023-02-12T03:10:45;25.9;;;20.0;;
67429;SDS011;54298;52.076;5.264;2023-02-12T03:14:11;27.5;;;21.5;;
67429;SDS011;54298;52.076;5.264;2023-02-12T03:15:55;28.2;;;21.8;;
67429;SDS011;54298;52.076;5.264;2023-02-12T03:17:38;28.4;;;22.4;;
67429;SDS011;54298;52.076;5.264;2023-02-12T03:19:20;26.5;;;19.5;;
67429;SDS011;54298;52.076;5.264;2023-02-12T03:22:42;22.9;;;18.3;;
67429;SDS011;54298;52.076;5.264;2023-02-12T03:24:27;28.6;;;19.2;;
67429;SDS011;54298;52.076;5.264;2023-02-12T03:26:10;27.2;;;20.2;;
67429;SDS011;54298;52.076;5.264;2023-02-12T03:27:54;28.4;;;21.6;;
67429;SDS011;54298;52.076;5.264;2023-02-12T03:29:39;27.2;;;21.5;;
67429;SDS011;54298;52.076;5.264;2023-02-12T03:33:07;23.7;;;18.7;;
67429;SDS011;54298;52.076;5.264;2023-02-12T03:34:57;28.0;;;20.2;;
67429;SDS011;54298;52.076;5.264;2023-02-12T03:36:47;26.2;;;19.0;;
67429;SDS011;54298;52.076;5.264;2023-02-12T03:38:33;27.4;;;20.2;;
67429;SDS011;54298;52.076;5.264;2023-02-12T03:40:15;27.6;;;20.5;;
67429;SDS011;54298;52.076;5.264;2023-02-12T03:43:43;36.1;;;27.4;;
67429;SDS011;54298;52.076;5.264;2023-02-12T03:45:28;28.1;;;20.2;;
67429;SDS011;54298;52.076;5.264;2023-02-12T03:47:18;29.8;;;21.6;;
67429;SDS011;54298;52.076;5.264;2023-02-12T03:49:01;30.8;;;22.6;;
67429;SDS011;54298;52.076;5.264;2023-02-12T03:50:44;27.1;;;21.0;;
67429;SDS011;54298;52.076;5.264;2023-02-12T03:52:31;28.6;;;21.2;;
67429;SDS011;54298;52.076;5.264;2023-02-12T03:55:50;25.9;;;18.61;;
67429;SDS011;54298;52.076;5.264;2023-02-12T03:57:33;25.2;;;21.0;;
67429;SDS011;54298;52.076;5.264;2023-02-12T03:59:16;30.0;;;19.5;;
67429;SDS011;54298;52.076;5.264;2023-02-12T04:00:53;24.4;;;19.2;;
67429;SDS011;54298;52.076;5.264;2023-02-12T04:04:06;25.9;;;18.8;;
67429;SDS011;54298;52.076;5.264;2023-02-12T04:05:45;24.5;;;18.61;;
67429;SDS011;54298;52.076;5.264;2023-02-12T04:07:22;26.3;;;20.8;;
67429;SDS011;54298;52.076;5.264;2023-02-12T04:10:53;28.2;;;21.4;;
67429;SDS011;54298;52.076;5.264;2023-02-12T04:12:40;24.5;;;20.11;;
67429;SDS011;54298;52.076;5.264;2023-02-12T04:14:28;26.3;;;18.91;;
67429;SDS011;54298;52.076;5.264;2023-02-12T04:16:16;29.0;;;23.1;;
67429;SDS011;54298;52.076;5.264;2023-02-12T04:18:01;30.4;;;24.7;;
67429;SDS011;54298;52.076;5.264;2023-02-12T04:19:47;27.6;;;22.6;;
67429;SDS011;54298;52.076;5.264;2023-02-12T04:23:32;27.3;;;21.7;;
67429;SDS011;54298;52.076;5.264;2023-02-12T04:25:26;27.3;;;22.6;;
67429;SDS011;54298;52.076;5.264;2023-02-12T04:27:18;29.7;;;21.4;;
67429;SDS011;54298;52.076;5.264;2023-02-12T04:29:07;28.5;;;20.9;;
67429;SDS011;54298;52.076;5.264;2023-02-12T04:30:53;28.5;;;20.9;;
67429;SDS011;54298;52.076;5.264;2023-02-12T04:32:36;31.1;;;23.8;;
67429;SDS011;54298;52.076;5.264;2023-02-12T04:34:21;30.4;;;24.6;;
67429;SDS011;54298;52.076;5.264;2023-02-12T04:37:52;29.2;;;23.4;;
67429;SDS011;54298;52.076;5.264;2023-02-12T04:39:37;29.6;;;25.2;;
67429;SDS011;54298;52.076;5.264;2023-02-12T04:41:16;31.1;;;25.5;;
67429;SDS011;54298;52.076;5.264;2023-02-12T04:42:53;28.1;;;22.9;;
67429;SDS011;54298;52.076;5.264;2023-02-12T04:46:09;29.5;;;24.7;;
67429;SDS011;54298;52.076;5.264;2023-02-12T04:47:46;28.1;;;23.6;;
67429;SDS011;54298;52.076;5.264;2023-02-12T04:49:23;29.7;;;24.3;;
67429;SDS011;54298;52.076;5.264;2023-02-12T04:51:00;27.8;;;23.9;;
67429;SDS011;54298;52.076;5.264;2023-02-12T04:54:15;31.5;;;24.3;;
67429;SDS011;54298;52.076;5.264;2023-02-12T04:55:54;29.2;;;23.7;;
67429;SDS011;54298;52.076;5.264;2023-02-12T04:57:30;30.4;;;24.2;;
67429;SDS011;54298;52.076;5.264;2023-02-12T05:00:44;31.5;;;23.1;;
67429;SDS011;54298;52.076;5.264;2023-02-12T05:02:21;29.2;;;22.6;;
67429;SDS011;54298;52.076;5.264;2023-02-12T05:03:58;27.8;;;23.6;;
67429;SDS011;54298;52.076;5.264;2023-02-12T05:07:11;27.9;;;23.5;;
67429;SDS011;54298;52.076;5.264;2023-02-12T05:08:47;28.5;;;21.8;;
67429;SDS011;54298;52.076;5.264;2023-02-12T05:10:23;31.9;;;24.6;;
67429;SDS011;54298;52.076;5.264;2023-02-12T05:12:00;31.9;;;24.6;;
67429;SDS011;54298;52.076;5.264;2023-02-12T05:15:14;30.7;;;25.6;;
67429;SDS011;54298;52.076;5.264;2023-02-12T05:16:51;25.7;;;20.7;;
67429;SDS011;54298;52.076;5.264;2023-02-12T05:18:28;29.7;;;24.6;;
67429;SDS011;54298;52.076;5.264;2023-02-12T05:21:43;26.7;;;21.5;;
67429;SDS011;54298;52.076;5.264;2023-02-12T05:23:19;30.5;;;23.4;;
67429;SDS011;54298;52.076;5.264;2023-02-12T05:24:55;29.6;;;22.5;;
67429;SDS011;54298;52.076;5.264;2023-02-12T05:28:09;30.8;;;24.3;;
67429;SDS011;54298;52.076;5.264;2023-02-12T05:29:45;31.1;;;25.0;;
67429;SDS011;54298;52.076;5.264;2023-02-12T05:31:21;28.7;;;24.3;;
67429;SDS011;54298;52.076;5.264;2023-02-12T05:32:58;29.7;;;22.9;;
67429;SDS011;54298;52.076;5.264;2023-02-12T05:36:12;31.6;;;24.0;;
67429;SDS011;54298;52.076;5.264;2023-02-12T05:37:52;27.4;;;21.8;;
67429;SDS011;54298;52.076;5.264;2023-02-12T05:39:28;27.3;;;21.9;;
67429;SDS011;54298;52.076;5.264;2023-02-12T05:42:43;28.2;;;22.6;;
67429;SDS011;54298;52.076;5.264;2023-02-12T05:44:19;31.3;;;26.5;;
67429;SDS011;54298;52.076;5.264;2023-02-12T05:45:57;29.3;;;24.3;;
67429;SDS011;54298;52.076;5.264;2023-02-12T05:47:34;26.6;;;22.1;;
67429;SDS011;54298;52.076;5.264;2023-02-12T05:50:48;26.4;;;21.4;;
67429;SDS011;54298;52.076;5.264;2023-02-12T05:52:24;30.6;;;23.7;;
67429;SDS011;54298;52.076;5.264;2023-02-12T05:54:03;29.7;;;23.4;;
67429;SDS011;54298;52.076;5.264;2023-02-12T05:57:17;28.3;;;21.5;;
67429;SDS011;54298;52.076;5.264;2023-02-12T05:58:54;25.2;;;20.6;;
67429;SDS011;54298;52.076;5.264;2023-02-12T06:00:32;27.4;;;22.1;;
67429;SDS011;54298;52.076;5.264;2023-02-12T06:02:09;27.3;;;21.6;;
67429;SDS011;54298;52.076;5.264;2023-02-12T06:05:23;25.7;;;21.8;;
67429;SDS011;54298;52.076;5.264;2023-02-12T06:06:59;26.5;;;23.7;;
67429;SDS011;54298;52.076;5.264;2023-02-12T06:11:49;26.9;;;23.4;;
67429;SDS011;54298;52.076;5.264;2023-02-12T06:13:26;27.3;;;21.4;;
67429;SDS011;54298;52.076;5.264;2023-02-12T06:15:03;26.3;;;23.4;;
67429;SDS011;54298;52.076;5.264;2023-02-12T06:18:20;25.4;;;22.3;;
67429;SDS011;54298;52.076;5.264;2023-02-12T06:19:57;27.3;;;21.9;;
67429;SDS011;54298;52.076;5.264;2023-02-12T06:21:33;29.2;;;23.0;;
67429;SDS011;54298;52.076;5.264;2023-02-12T06:23:10;24.4;;;20.41;;
67429;SDS011;54298;52.076;5.264;2023-02-12T06:26:23;24.5;;;21.3;;
67429;SDS011;54298;52.076;5.264;2023-02-12T06:28:00;23.6;;;21.0;;
67429;SDS011;54298;52.076;5.264;2023-02-12T06:29:36;26.3;;;20.41;;
67429;SDS011;54298;52.076;5.264;2023-02-12T06:32:55;27.5;;;23.6;;
67429;SDS011;54298;52.076;5.264;2023-02-12T06:34:32;30.8;;;20.9;;
67429;SDS011;54298;52.076;5.264;2023-02-12T06:36:09;28.5;;;23.6;;
67429;SDS011;54298;52.076;5.264;2023-02-12T06:37:45;27.0;;;23.2;;
67429;SDS011;54298;52.076;5.264;2023-02-12T06:41:00;25.9;;;21.7;;
67429;SDS011;54298;52.076;5.264;2023-02-12T06:42:37;23.7;;;19.8;;
67429;SDS011;54298;52.076;5.264;2023-02-12T06:44:13;24.3;;;19.91;;
67429;SDS011;54298;52.076;5.264;2023-02-12T06:47:25;24.7;;;21.3;;
67429;SDS011;54298;52.076;5.264;2023-02-12T06:49:02;25.9;;;21.7;;
67429;SDS011;54298;52.076;5.264;2023-02-12T06:50:39;28.6;;;22.6;;
67429;SDS011;54298;52.076;5.264;2023-02-12T06:53:52;28.3;;;24.8;;
67429;SDS011;54298;52.076;5.264;2023-02-12T06:55:30;23.8;;;20.7;;
67429;SDS011;54298;52.076;5.264;2023-02-12T06:57:06;26.9;;;22.2;;
67429;SDS011;54298;52.076;5.264;2023-02-12T06:58:43;26.9;;;22.4;;
67429;SDS011;54298;52.076;5.264;2023-02-12T07:01:58;26.2;;;22.8;;
67429;SDS011;54298;52.076;5.264;2023-02-12T07:03:35;24.7;;;22.1;;
67429;SDS011;54298;52.076;5.264;2023-02-12T07:05:11;25.6;;;20.9;;
67429;SDS011;54298;52.076;5.264;2023-02-12T07:08:24;24.4;;;21.6;;
67429;SDS011;54298;52.076;5.264;2023-02-12T07:10:00;24.3;;;20.5;;
67429;SDS011;54298;52.076;5.264;2023-02-12T07:11:37;24.7;;;22.0;;
67429;SDS011;54298;52.076;5.264;2023-02-12T07:13:14;25.7;;;22.4;;
67429;SDS011;54298;52.076;5.264;2023-02-12T07:16:27;25.9;;;23.0;;
67429;SDS011;54298;52.076;5.264;2023-02-12T07:18:04;26.0;;;22.0;;
67429;SDS011;54298;52.076;5.264;2023-02-12T07:19:41;25.4;;;20.6;;
67429;SDS011;54298;52.076;5.264;2023-02-12T07:22:55;26.2;;;21.1;;
67429;SDS011;54298;52.076;5.264;2023-02-12T07:24:31;23.0;;;20.5;;
67429;SDS011;54298;52.076;5.264;2023-02-12T07:26:08;22.6;;;20.2;;
67429;SDS011;54298;52.076;5.264;2023-02-12T07:29:23;25.2;;;22.5;;
67429;SDS011;54298;52.076;5.264;2023-02-12T07:31:05;23.6;;;21.1;;
67429;SDS011;54298;52.076;5.264;2023-02-12T07:32:43;23.0;;;19.61;;
67429;SDS011;54298;52.076;5.264;2023-02-12T07:34:19;22.0;;;18.61;;
67429;SDS011;54298;52.076;5.264;2023-02-12T07:37:35;25.9;;;23.1;;
67429;SDS011;54298;52.076;5.264;2023-02-12T07:39:12;23.5;;;19.5;;
67429;SDS011;54298;52.076;5.264;2023-02-12T07:40:48;23.3;;;20.0;;
67429;SDS011;54298;52.076;5.264;2023-02-12T07:44:03;26.3;;;22.3;;
67429;SDS011;54298;52.076;5.264;2023-02-12T07:45:42;22.7;;;18.8;;
67429;SDS011;54298;52.076;5.264;2023-02-12T07:47:18;24.2;;;20.8;;
67429;SDS011;54298;52.076;5.264;2023-02-12T07:48:56;24.2;;;20.41;;
67429;SDS011;54298;52.076;5.264;2023-02-12T07:52:11;23.6;;;20.11;;
67429;SDS011;54298;52.076;5.264;2023-02-12T07:53:47;24.9;;;20.5;;
67429;SDS011;54298;52.076;5.264;2023-02-12T07:55:25;25.2;;;20.41;;
67429;SDS011;54298;52.076;5.264;2023-02-12T07:58:39;23.2;;;19.0;;
67429;SDS011;54298;52.076;5.264;2023-02-12T08:00:17;27.0;;;22.4;;
67429;SDS011;54298;52.076;5.264;2023-02-12T08:01:55;25.2;;;21.1;;
67429;SDS011;54298;52.076;5.264;2023-02-12T08:03:31;24.2;;;19.8;;
67429;SDS011;54298;52.076;5.264;2023-02-12T08:06:46;24.7;;;19.5;;
67429;SDS011;54298;52.076;5.264;2023-02-12T08:08:24;23.4;;;20.9;;
67429;SDS011;54298;52.076;5.264;2023-02-12T08:10:00;25.7;;;21.7;;
67429;SDS011;54298;52.076;5.264;2023-02-12T08:13:16;24.6;;;20.8;;
67429;SDS011;54298;52.076;5.264;2023-02-12T08:14:53;26.2;;;21.8;;
67429;SDS011;54298;52.076;5.264;2023-02-12T08:18:11;27.4;;;22.9;;
67429;SDS011;54298;52.076;5.264;2023-02-12T08:21:24;25.4;;;22.0;;
67429;SDS011;54298;52.076;5.264;2023-02-12T08:23:02;29.3;;;21.9;;
67429;SDS011;54298;52.076;5.264;2023-02-12T08:24:38;25.0;;;21.2;;
67429;SDS011;54298;52.076;5.264;2023-02-12T08:27:54;25.4;;;20.0;;
67429;SDS011;54298;52.076;5.264;2023-02-12T08:29:30;25.8;;;21.6;;
67429;SDS011;54298;52.076;5.264;2023-02-12T08:31:07;24.1;;;20.2;;
67429;SDS011;54298;52.076;5.264;2023-02-12T08:32:50;25.9;;;20.41;;
67429;SDS011;54298;52.076;5.264;2023-02-12T08:36:06;26.9;;;22.2;;
67429;SDS011;54298;52.076;5.264;2023-02-12T08:37:45;26.5;;;22.2;;
67429;SDS011;54298;52.076;5.264;2023-02-12T08:39:21;26.2;;;20.3;;
67429;SDS011;54298;52.076;5.264;2023-02-12T08:42:37;26.7;;;20.8;;
67429;SDS011;54298;52.076;5.264;2023-02-12T08:44:14;25.2;;;19.7;;
67429;SDS011;54298;52.076;5.264;2023-02-12T08:45:50;28.6;;;24.0;;
67429;SDS011;54298;52.076;5.264;2023-02-12T08:47:27;24.5;;;20.0;;
67429;SDS011;54298;52.076;5.264;2023-02-12T08:50:44;26.0;;;21.9;;
67429;SDS011;54298;52.076;5.264;2023-02-12T08:52:21;23.3;;;20.3;;
67429;SDS011;54298;52.076;5.264;2023-02-12T08:53:58;26.0;;;20.9;;
67429;SDS011;54298;52.076;5.264;2023-02-12T08:57:12;22.3;;;18.8;;
67429;SDS011;54298;52.076;5.264;2023-02-12T08:58:49;24.2;;;20.2;;
67429;SDS011;54298;52.076;5.264;2023-02-12T09:00:26;27.5;;;21.1;;
67429;SDS011;54298;52.076;5.264;2023-02-12T09:02:03;22.6;;;18.0;;
67429;SDS011;54298;52.076;5.264;2023-02-12T09:05:17;24.9;;;20.8;;
67429;SDS011;54298;52.076;5.264;2023-02-12T09:06:53;22.3;;;18.8;;
67429;SDS011;54298;52.076;5.264;2023-02-12T09:08:31;21.8;;;19.0;;
67429;SDS011;54298;52.076;5.264;2023-02-12T09:11:46;28.9;;;23.5;;
67429;SDS011;54298;52.076;5.264;2023-02-12T09:13:23;27.7;;;23.3;;
67429;SDS011;54298;52.076;5.264;2023-02-12T09:15:00;26.5;;;23.0;;
67429;SDS011;54298;52.076;5.264;2023-02-12T09:18:15;25.6;;;20.8;;
67429;SDS011;54298;52.076;5.264;2023-02-12T09:19:52;26.7;;;21.4;;
67429;SDS011;54298;52.076;5.264;2023-02-12T09:21:29;31.0;;;25.0;;
67429;SDS011;54298;52.076;5.264;2023-02-12T09:23:07;27.7;;;22.1;;
67429;SDS011;54298;52.076;5.264;2023-02-12T09:26:24;31.3;;;26.1;;
67429;SDS011;54298;52.076;5.264;2023-02-12T09:28:01;25.9;;;22.5;;
67429;SDS011;54298;52.076;5.264;2023-02-12T09:29:38;27.7;;;22.5;;
67429;SDS011;54298;52.076;5.264;2023-02-12T09:32:55;27.4;;;23.8;;
67429;SDS011;54298;52.076;5.264;2023-02-12T09:34:33;29.1;;;22.9;;
67429;SDS011;54298;52.076;5.264;2023-02-12T09:36:10;29.6;;;23.0;;
67429;SDS011;54298;52.076;5.264;2023-02-12T09:37:51;28.0;;;23.1;;
67429;SDS011;54298;52.076;5.264;2023-02-12T09:41:13;26.8;;;23.3;;
67429;SDS011;54298;52.076;5.264;2023-02-12T09:43:06;27.5;;;22.6;;
67429;SDS011;54298;52.076;5.264;2023-02-12T09:44:52;28.5;;;25.3;;
67429;SDS011;54298;52.076;5.264;2023-02-12T09:46:40;28.3;;;24.6;;
67429;SDS011;54298;52.076;5.264;2023-02-12T09:48:29;29.8;;;25.2;;
67429;SDS011;54298;52.076;5.264;2023-02-12T09:50:36;27.2;;;23.8;;
67429;SDS011;54298;52.076;5.264;2023-02-12T09:52:23;28.4;;;23.3;;
67429;SDS011;54298;52.076;5.264;2023-02-12T09:55:45;27.8;;;24.6;;
67429;SDS011;54298;52.076;5.264;2023-02-12T09:57:24;35.9;;;30.2;;
67429;SDS011;54298;52.076;5.264;2023-02-12T09:59:05;34.6;;;27.3;;
67429;SDS011;54298;52.076;5.264;2023-02-12T10:00:43;27.8;;;23.0;;
67429;SDS011;54298;52.076;5.264;2023-02-12T10:03:59;33.3;;;25.9;;
67429;SDS011;54298;52.076;5.264;2023-02-12T10:05:37;30.3;;;26.4;;
67429;SDS011;54298;52.076;5.264;2023-02-12T10:07:19;29.1;;;25.0;;
67429;SDS011;54298;52.076;5.264;2023-02-12T10:09:19;28.1;;;25.1;;
67429;SDS011;54298;52.076;5.264;2023-02-12T10:11:15;27.9;;;24.8;;
67429;SDS011;54298;52.076;5.264;2023-02-12T10:13:17;29.6;;;25.9;;
67429;SDS011;54298;52.076;5.264;2023-02-12T10:17:04;33.8;;;28.1;;
67429;SDS011;54298;52.076;5.264;2023-02-12T10:18:51;39.5;;;31.0;;
67429;SDS011;54298;52.076;5.264;2023-02-12T10:20:47;40.0;;;31.7;;
67429;SDS011;54298;52.076;5.264;2023-02-12T10:22:49;42.3;;;29.5;;
67429;SDS011;54298;52.076;5.264;2023-02-12T10:24:44;48.2;;;37.1;;
67429;SDS011;54298;52.076;5.264;2023-02-12T10:26:33;32.9;;;28.7;;
67429;SDS011;54298;52.076;5.264;2023-02-12T10:28:14;31.7;;;28.4;;
67429;SDS011;54298;52.076;5.264;2023-02-12T10:29:54;31.5;;;27.5;;
67429;SDS011;54298;52.076;5.264;2023-02-12T10:33:15;30.9;;;25.5;;
67429;SDS011;54298;52.076;5.264;2023-02-12T10:34:56;30.4;;;25.5;;
67429;SDS011;54298;52.076;5.264;2023-02-12T10:36:36;27.9;;;23.1;;
67429;SDS011;54298;52.076;5.264;2023-02-12T10:38:18;27.9;;;23.1;;
67429;SDS011;54298;52.076;5.264;2023-02-12T10:41:40;30.5;;;27.0;;
67429;SDS011;54298;52.076;5.264;2023-02-12T10:43:21;30.5;;;27.0;;
67429;SDS011;54298;52.076;5.264;2023-02-12T10:44:58;28.3;;;25.2;;
67429;SDS011;54298;52.076;5.264;2023-02-12T10:46:36;29.8;;;26.6;;
67429;SDS011;54298;52.076;5.264;2023-02-12T10:49:56;29.0;;;25.8;;
67429;SDS011;54298;52.076;5.264;2023-02-12T10:51:37;30.6;;;26.5;;
67429;SDS011;54298;52.076;5.264;2023-02-12T10:53:25;29.7;;;24.8;;
67429;SDS011;54298;52.076;5.264;2023-02-12T10:55:22;31.7;;;27.4;;
67429;SDS011;54298;52.076;5.264;2023-02-12T10:58:51;29.7;;;26.5;;
67429;SDS011;54298;52.076;5.264;2023-02-12T11:00:30;28.2;;;24.4;;
67429;SDS011;54298;52.076;5.264;2023-02-12T11:02:29;27.6;;;24.6;;
67429;SDS011;54298;52.076;5.264;2023-02-12T11:04:18;33.21;;;25.2;;
67429;SDS011;54298;52.076;5.264;2023-02-12T11:06:11;28.0;;;23.8;;
67429;SDS011;54298;52.076;5.264;2023-02-12T11:07:50;27.8;;;24.8;;
67429;SDS011;54298;52.076;5.264;2023-02-12T11:11:07;26.5;;;23.7;;
67429;SDS011;54298;52.076;5.264;2023-02-12T11:12:48;27.5;;;23.4;;
67429;SDS011;54298;52.076;5.264;2023-02-12T11:14:24;26.8;;;23.9;;
67429;SDS011;54298;52.076;5.264;2023-02-12T11:16:02;27.8;;;24.3;;
67429;SDS011;54298;52.076;5.264;2023-02-12T11:19:20;30.6;;;26.4;;
67429;SDS011;54298;52.076;5.264;2023-02-12T11:21:00;23.9;;;21.3;;
67429;SDS011;54298;52.076;5.264;2023-02-12T11:22:47;27.2;;;24.2;;
67429;SDS011;54298;52.076;5.264;2023-02-12T11:24:28;28.0;;;24.1;;
67429;SDS011;54298;52.076;5.264;2023-02-12T11:28:04;44.0;;;33.8;;
67429;SDS011;54298;52.076;5.264;2023-02-12T11:30:03;33.71;;;28.6;;
67429;SDS011;54298;52.076;5.264;2023-02-12T11:31:58;28.6;;;23.4;;
67429;SDS011;54298;52.076;5.264;2023-02-12T11:33:45;38.71;;;28.9;;
67429;SDS011;54298;52.076;5.264;2023-02-12T11:35:24;36.6;;;29.1;;
67429;SDS011;54298;52.076;5.264;2023-02-12T11:37:01;48.1;;;34.0;;
67429;SDS011;54298;52.076;5.264;2023-02-12T11:40:28;25.1;;;21.9;;
67429;SDS011;54298;52.076;5.264;2023-02-12T11:42:14;23.4;;;20.7;;
67429;SDS011;54298;52.076;5.264;2023-02-12T11:43:53;24.3;;;20.2;;
67429;SDS011;54298;52.076;5.264;2023-02-12T11:45:32;26.6;;;23.0;;
67429;SDS011;54298;52.076;5.264;2023-02-12T11:47:17;25.7;;;22.0;;
67429;SDS011;54298;52.076;5.264;2023-02-12T11:50:33;24.9;;;21.4;;
67429;SDS011;54298;52.076;5.264;2023-02-12T11:52:16;22.0;;;18.5;;
67429;SDS011;54298;52.076;5.264;2023-02-12T11:53:57;24.6;;;19.7;;
67429;SDS011;54298;52.076;5.264;2023-02-12T11:55:38;25.5;;;22.8;;
67429;SDS011;54298;52.076;5.264;2023-02-12T11:59:32;24.6;;;21.0;;
67429;SDS011;54298;52.076;5.264;2023-02-12T12:01:11;22.9;;;20.2;;
67429;SDS011;54298;52.076;5.264;2023-02-12T12:02:56;21.1;;;17.91;;
67429;SDS011;54298;52.076;5.264;2023-02-12T12:04:36;23.5;;;19.61;;
67429;SDS011;54298;52.076;5.264;2023-02-12T12:06:20;28.3;;;22.0;;
67429;SDS011;54298;52.076;5.264;2023-02-12T12:09:56;24.8;;;20.0;;
67429;SDS011;54298;52.076;5.264;2023-02-12T12:11:40;23.3;;;19.2;;
67429;SDS011;54298;52.076;5.264;2023-02-12T12:13:34;22.0;;;19.11;;
67429;SDS011;54298;52.076;5.264;2023-02-12T12:20:10;19.3;;;16.11;;
67429;SDS011;54298;52.076;5.264;2023-02-12T12:21:56;20.5;;;17.8;;
67429;SDS011;54298;52.076;5.264;2023-02-12T12:23:39;20.11;;;16.2;;
67429;SDS011;54298;52.076;5.264;2023-02-12T12:25:20;24.9;;;18.7;;
67429;SDS011;54298;52.076;5.264;2023-02-12T12:28:50;19.91;;;17.11;;
67429;SDS011;54298;52.076;5.264;2023-02-12T12:30:38;25.1;;;18.41;;
67429;SDS011;54298;52.076;5.264;2023-02-12T12:32:36;20.41;;;17.8;;
67429;SDS011;54298;52.076;5.264;2023-02-12T12:34:17;22.3;;;18.91;;
67429;SDS011;54298;52.076;5.264;2023-02-12T12:36:01;20.2;;;18.11;;
67429;SDS011;54298;52.076;5.264;2023-02-12T12:38:00;32.5;;;23.4;;
67429;SDS011;54298;52.076;5.264;2023-02-12T12:39:46;27.1;;;20.11;;
67429;SDS011;54298;52.076;5.264;2023-02-12T12:43:35;24.4;;;18.61;;
67429;SDS011;54298;52.076;5.264;2023-02-12T12:45:29;21.1;;;18.5;;
67429;SDS011;54298;52.076;5.264;2023-02-12T12:48:22;22.8;;;19.2;;
67429;SDS011;54298;52.076;5.264;2023-02-12T12:50:20;21.9;;;18.61;;